Time;durP1;ratioP1;P1;durP2;ratioP2;P2;SDS_P1;SDS_P2;PMS_P1;PMS_P2;Temp;Humidity;BMP_temperature;BMP_pressure;BME280_temperature;BME280_humidity;BME280_pressure;Samples;Min_cycle;Max_cycle;Signal;HPM_P1;HPM_P2
2023/02/04 00:02:46;;;;;;;4.70;2.55;;;;;;;0.84;100.00;99327.19;6347990;28;20036;-78
2023/02/04 00:05:46;;;;;;;7.35;2.88;;;;;;;0.79;100.00;99337.63;6348511;28;20044;-78
2023/02/04 00:08:47;;;;;;;4.32;2.00;;;;;;;0.74;100.00;99333.50;6346930;28;20396;-73
2023/02/04 00:11:48;;;;;;;2.30;1.95;;;;;;;0.70;100.00;99337.94;6326512;28;20035;-73
2023/02/04 00:14:49;;;;;;;2.25;1.48;;;;;;;0.63;100.00;99333.03;6341592;28;20035;-78
2023/02/04 00:17:50;;;;;;;3.30;1.67;;;;;;;0.56;100.00;99346.06;6344876;28;20415;-78
2023/02/04 00:20:53;;;;;;;2.42;2.00;;;;;;;0.55;100.00;99346.09;6328652;28;20035;-78
2023/02/04 00:23:54;;;;;;;3.67;2.08;;;;;;;0.58;100.00;99335.75;6322414;28;20047;-73
2023/02/04 00:26:55;;;;;;;3.90;2.20;;;;;;;0.54;100.00;99332.44;6328645;28;20040;-73
2023/02/04 00:29:56;;;;;;;4.72;2.65;;;;;;;0.46;100.00;99331.00;6348323;28;20131;-73
2023/02/04 00:32:57;;;;;;;1.85;1.58;;;;;;;0.37;100.00;99332.97;6310774;28;20059;-73
2023/02/04 00:35:58;;;;;;;2.42;2.05;;;;;;;0.44;100.00;99319.94;6329148;28;20047;-78
2023/02/04 00:38:59;;;;;;;3.15;2.05;;;;;;;0.51;100.00;99311.97;6305214;28;20048;-78
2023/02/04 00:42:00;;;;;;;4.53;2.28;;;;;;;0.56;100.00;99314.41;6303603;28;20082;-72
2023/02/04 00:45:00;;;;;;;2.75;1.95;;;;;;;0.64;100.00;99317.59;6304743;28;20040;-78
2023/02/04 00:48:01;;;;;;;1.63;1.25;;;;;;;0.65;100.00;99323.56;6322449;28;20033;-73
2023/02/04 00:51:02;;;;;;;5.25;1.67;;;;;;;0.69;100.00;99332.84;6308053;28;20122;-73
2023/02/04 00:54:03;;;;;;;2.38;1.73;;;;;;;0.68;100.00;99346.53;6328873;28;20044;-72
2023/02/04 00:57:05;;;;;;;2.80;1.98;;;;;;;0.48;100.00;99340.31;6323457;28;20044;-72
2023/02/04 01:00:06;;;;;;;1.90;1.55;;;;;;;0.33;100.00;99346.78;6323796;28;20040;-72
2023/02/04 01:03:07;;;;;;;3.13;2.15;;;;;;;0.25;100.00;99328.19;6345848;28;20088;-72
2023/02/04 01:06:08;;;;;;;6.47;2.30;;;;;;;0.43;100.00;99336.22;6345877;28;20039;-72
2023/02/04 01:09:09;;;;;;;6.95;2.75;;;;;;;0.51;100.00;99326.53;6341493;28;20456;-72
2023/02/04 01:12:09;;;;;;;5.70;2.65;;;;;;;0.44;100.00;99325.06;6335490;28;20114;-78
2023/02/04 01:15:11;;;;;;;9.88;3.53;;;;;;;0.53;100.00;99341.00;6319146;28;20403;-78
2023/02/04 01:18:12;;;;;;;8.05;3.30;;;;;;;0.59;100.00;99339.97;6308289;28;20063;-78
2023/02/04 01:21:13;;;;;;;3.00;2.13;;;;;;;0.71;100.00;99349.88;6319980;28;20536;-73
2023/02/04 01:24:13;;;;;;;5.15;2.88;;;;;;;0.73;100.00;99340.38;6345849;28;20047;-78
2023/02/04 01:27:14;;;;;;;4.93;2.92;;;;;;;0.81;100.00;99337.56;6327686;28;20470;-72
2023/02/04 01:30:16;;;;;;;3.90;2.67;;;;;;;0.76;100.00;99337.72;6328161;28;20124;-78
2023/02/04 01:33:16;;;;;;;6.35;2.95;;;;;;;0.79;100.00;99326.50;6346249;28;20035;-78
2023/02/04 01:36:20;;;;;;;6.15;2.50;;;;;;;0.75;100.00;99328.34;6339653;28;20447;-72
2023/02/04 01:39:21;;;;;;;2.63;1.92;;;;;;;0.87;100.00;99332.25;6320794;28;20043;-72
2023/02/04 01:42:22;;;;;;;4.53;2.83;;;;;;;0.87;100.00;99336.53;6302830;28;20385;-72
2023/02/04 01:45:27;;;;;;;2.80;1.85;;;;;;;0.83;100.00;99328.09;6320854;28;20040;-72
2023/02/04 01:48:27;;;;;;;2.95;1.30;;;;;;;0.75;100.00;99330.06;6319499;28;20261;-72
2023/02/04 01:51:30;;;;;;;22.95;2.38;;;;;;;0.72;100.00;99322.44;6341372;28;20472;-72
2023/02/04 01:54:31;;;;;;;12.90;3.13;;;;;;;0.66;100.00;99313.25;6345258;28;20047;-78
2023/02/04 01:57:34;;;;;;;1.83;1.33;;;;;;;0.73;100.00;99307.00;6327599;28;20377;-78
2023/02/04 02:00:35;;;;;;;;;;;;;;;0.72;100.00;99301.91;6341102;28;20082;-78
2023/02/04 02:03:35;;;;;;;2.38;1.35;;;;;;;0.79;100.00;99308.53;6302792;28;19924;-78
2023/02/04 02:06:42;;;;;;;4.18;2.40;;;;;;;0.67;100.00;99304.63;6307156;28;20055;-77
2023/02/04 02:09:43;;;;;;;7.43;2.33;;;;;;;0.43;100.00;99311.38;6327965;28;20040;-78
2023/02/04 02:12:45;;;;;;;3.25;1.92;;;;;;;0.37;100.00;99298.75;6327648;28;20074;-72
2023/02/04 02:15:46;;;;;;;2.65;1.58;;;;;;;0.43;100.00;99301.13;6341097;28;20036;-78
2023/02/04 02:18:48;;;;;;;4.00;2.30;;;;;;;0.36;100.00;99307.34;6343932;28;20164;-78
2023/02/04 02:21:56;;;;;;;1.93;1.73;;;;;;;0.22;100.00;99306.94;6326834;28;20032;-78
2023/02/04 02:24:56;;;;;;;3.42;1.98;;;;;;;0.31;100.00;99309.19;6333755;28;20039;-72
2023/02/04 02:27:58;;;;;;;1.85;1.75;;;;;;;0.36;100.00;99307.34;6333935;28;20036;-78
2023/02/04 02:30:59;;;;;;;3.07;1.80;;;;;;;0.35;100.00;99296.25;6342271;28;20039;-78
2023/02/04 02:34:00;;;;;;;4.15;2.22;;;;;;;0.28;100.00;99310.13;6321430;28;20051;-78
2023/02/04 02:37:02;;;;;;;4.70;2.20;;;;;;;0.20;100.00;99306.97;6322451;28;20499;-72
2023/02/04 02:40:03;;;;;;;2.53;1.52;;;;;;;0.10;100.00;99310.69;6329524;28;20071;-72
2023/02/04 02:43:05;;;;;;;3.00;2.10;;;;;;;-0.18;100.00;99320.94;6341862;28;20410;-72
2023/02/04 02:46:06;;;;;;;1.80;1.15;;;;;;;0.13;100.00;99324.28;6341530;28;20487;-72
2023/02/04 02:49:15;;;;;;;2.08;0.98;;;;;;;0.19;100.00;99307.88;6327686;28;20043;-72
2023/02/04 02:52:19;;;;;;;1.13;0.98;;;;;;;0.19;100.00;99308.69;6309538;28;20479;-78
2023/02/04 02:55:25;;;;;;;1.42;1.08;;;;;;;0.20;100.00;99310.34;6327148;28;20063;-78
2023/02/04 02:58:32;;;;;;;1.45;1.27;;;;;;;0.26;100.00;99313.63;6324391;28;20070;-72
2023/02/04 03:01:33;;;;;;;3.10;1.42;;;;;;;0.21;100.00;99316.34;6338028;28;20040;-78
2023/02/04 03:04:42;;;;;;;1.65;1.48;;;;;;;0.16;100.00;99318.22;6346762;28;20066;-77
2023/02/04 03:07:43;;;;;;;2.13;1.13;;;;;;;0.19;100.00;99318.97;6331495;28;20040;-78
2023/02/04 03:10:44;;;;;;;1.45;0.95;;;;;;;0.12;100.00;99308.91;6306144;28;20048;-72
2023/02/04 03:13:45;;;;;;;1.13;0.83;;;;;;;0.13;100.00;99301.19;6324135;28;20032;-78
2023/02/04 03:16:47;;;;;;;1.65;1.48;;;;;;;0.13;100.00;99305.47;6306093;28;20044;-72
2023/02/04 03:19:48;;;;;;;1.20;1.10;;;;;;;0.16;100.00;99302.81;6322773;28;20095;-72
2023/02/04 03:22:49;;;;;;;4.32;1.13;;;;;;;0.27;100.00;99297.34;6305944;28;20043;-78
2023/02/04 03:25:50;;;;;;;2.47;1.75;;;;;;;0.28;100.00;99293.91;6324928;28;20036;-77
2023/02/04 03:28:55;;;;;;;2.05;1.75;;;;;;;0.26;100.00;99299.06;6325027;28;20065;-72
2023/02/04 03:31:58;;;;;;;2.47;1.90;;;;;;;0.17;100.00;99286.53;6326420;28;20063;-72
2023/02/04 03:34:59;;;;;;;3.42;2.40;;;;;;;0.27;100.00;99292.22;6320033;28;20039;-72
2023/02/04 03:38:00;;;;;;;4.60;3.47;;;;;;;0.43;100.00;99292.59;6329826;28;20044;-72
2023/02/04 03:41:01;;;;;;;4.03;2.67;;;;;;;0.44;100.00;99297.66;6348202;28;20437;-72
2023/02/04 03:44:04;;;;;;;4.22;2.53;;;;;;;0.37;100.00;99293.59;6348456;28;20066;-78
2023/02/04 03:47:05;;;;;;;1.63;1.35;;;;;;;0.11;100.00;99289.31;6344102;28;20071;-72
2023/02/04 03:50:06;;;;;;;3.22;1.42;;;;;;;0.07;100.00;99282.59;6343052;28;20028;-78
2023/02/04 03:53:08;;;;;;;4.75;2.45;;;;;;;0.02;100.00;99280.13;6327503;28;20078;-78
2023/02/04 03:56:10;;;;;;;;;;;;;;;0.06;100.00;99281.72;6323182;28;20061;-72
2023/02/04 03:59:11;;;;;;;2.22;1.55;;;;;;;0.15;100.00;99270.38;6346002;28;19920;-71
2023/02/04 04:02:11;;;;;;;1.65;1.38;;;;;;;0.24;100.00;99271.78;6326237;28;20047;-78
2023/02/04 04:05:12;;;;;;;6.32;2.35;;;;;;;0.36;100.00;99271.41;6328989;28;20044;-78
2023/02/04 04:08:13;;;;;;;5.47;2.30;;;;;;;0.42;100.00;99273.78;6311564;28;20047;-72
2023/02/04 04:11:14;;;;;;;4.78;2.42;;;;;;;0.42;100.00;99276.34;6329859;28;20040;-79
2023/02/04 04:14:15;;;;;;;3.08;1.63;;;;;;;0.43;100.00;99282.31;6327469;28;20036;-72
2023/02/04 04:17:15;;;;;;;7.63;2.83;;;;;;;0.44;100.00;99281.44;6328539;28;20126;-78
2023/02/04 04:20:16;;;;;;;6.53;2.20;;;;;;;0.44;100.00;99281.44;6350473;27;20040;-72
2023/02/04 04:23:17;;;;;;;5.97;2.55;;;;;;;0.51;100.00;99275.19;6332957;28;20040;-72
2023/02/04 04:26:18;;;;;;;3.35;2.10;;;;;;;0.55;100.00;99261.38;6326459;28;20184;-71
2023/02/04 04:29:19;;;;;;;6.80;2.20;;;;;;;0.52;100.00;99262.31;6339240;28;20499;-78
2023/02/04 04:32:22;;;;;;;4.32;2.35;;;;;;;0.48;100.00;99257.34;6331362;28;20039;-78
2023/02/04 04:35:23;;;;;;;6.43;2.97;;;;;;;0.35;100.00;99259.44;6346825;28;20492;-72
2023/02/04 04:38:24;;;;;;;7.53;3.15;;;;;;;0.22;100.00;99256.44;6325852;28;20064;-73
2023/02/04 04:41:25;;;;;;;10.45;3.35;;;;;;;0.24;100.00;99264.94;6325248;28;20039;-78
2023/02/04 04:44:25;;;;;;;4.45;2.08;;;;;;;0.20;100.00;99259.03;6319680;28;20158;-71
2023/02/04 04:47:26;;;;;;;6.25;1.60;;;;;;;0.38;100.00;99257.63;6317715;28;20480;-72
2023/02/04 04:50:29;;;;;;;4.97;2.03;;;;;;;0.41;100.00;99254.13;6343392;28;20042;-73
2023/02/04 04:53:30;;;;;;;3.10;1.95;;;;;;;0.34;100.00;99265.47;6328030;28;20043;-72
2023/02/04 04:56:31;;;;;;;3.85;1.67;;;;;;;0.34;100.00;99274.00;6337776;28;20055;-71
2023/02/04 04:59:34;;;;;;;4.07;2.58;;;;;;;0.41;100.00;99277.22;6318491;28;20439;-78
2023/02/04 05:02:35;;;;;;;3.50;2.35;;;;;;;0.47;100.00;99271.06;6322948;28;20036;-72
2023/02/04 05:05:40;;;;;;;4.85;3.15;;;;;;;0.60;100.00;99262.91;6327576;27;20035;-78
2023/02/04 05:08:40;;;;;;;13.38;3.38;;;;;;;0.67;100.00;99253.28;6356929;27;20118;-78
2023/02/04 05:11:41;;;;;;;7.38;3.13;;;;;;;0.67;100.00;99255.00;6343113;28;20065;-78
2023/02/04 05:14:42;;;;;;;9.63;3.70;;;;;;;0.58;100.00;99257.00;6344796;27;20506;-78
2023/02/04 05:17:43;;;;;;;10.20;4.65;;;;;;;0.58;100.00;99267.25;6371488;27;20047;-78
2023/02/04 05:20:44;;;;;;;3.22;2.33;;;;;;;0.64;100.00;99270.50;6316928;28;20040;-78
2023/02/04 05:23:44;;;;;;;6.22;2.30;;;;;;;0.63;100.00;99263.72;6346234;27;20156;-78
2023/02/04 05:26:45;;;;;;;3.72;2.30;;;;;;;0.64;100.00;99261.09;6320970;28;20078;-78
2023/02/04 05:29:46;;;;;;;8.38;2.75;;;;;;;0.57;100.00;99255.31;6333460;28;20047;-78
2023/02/04 05:32:47;;;;;;;3.60;2.17;;;;;;;0.57;100.00;99263.00;6334066;28;20027;-78
2023/02/04 05:35:48;;;;;;;6.63;3.88;;;;;;;0.63;100.00;99258.56;6311375;28;20058;-78
2023/02/04 05:38:49;;;;;;;3.17;2.15;;;;;;;0.64;100.00;99260.22;6346364;28;20079;-78
2023/02/04 05:41:50;;;;;;;3.80;2.70;;;;;;;0.66;100.00;99264.44;6323911;28;20046;-79
2023/02/04 05:44:51;;;;;;;3.90;2.72;;;;;;;0.69;100.00;99266.91;6328974;28;20040;-79
2023/02/04 05:47:52;;;;;;;33.97;2.85;;;;;;;0.68;100.00;99256.69;6346246;28;20395;-79
2023/02/04 05:50:53;;;;;;;2.17;1.95;;;;;;;0.75;100.00;99263.31;6327653;28;20453;-79
2023/02/04 05:53:56;;;;;;;2.33;1.83;;;;;;;0.64;100.00;99255.09;6345658;28;20035;-79
2023/02/04 05:56:59;;;;;;;2.50;1.58;;;;;;;0.66;100.00;99258.47;6327887;28;20040;-78
2023/02/04 06:00:00;;;;;;;2.38;1.45;;;;;;;0.65;100.00;99262.75;6327738;28;20468;-78
2023/02/04 06:03:00;;;;;;;1.55;1.27;;;;;;;0.69;100.00;99264.34;6345667;28;20115;-78
2023/02/04 06:06:01;;;;;;;3.05;1.30;;;;;;;0.68;100.00;99272.94;6327279;28;20043;-71
2023/02/04 06:09:02;;;;;;;3.17;1.77;;;;;;;0.73;100.00;99278.75;6345752;28;20484;-71
2023/02/04 06:12:04;;;;;;;1.77;1.50;;;;;;;0.68;100.00;99269.50;6335625;28;20063;-79
2023/02/04 06:15:05;;;;;;;1.42;1.08;;;;;;;0.63;100.00;99284.25;6320455;28;20047;-78
2023/02/04 06:18:06;;;;;;;3.88;1.25;;;;;;;0.70;100.00;99289.13;6302217;28;20545;-78
2023/02/04 06:21:07;;;;;;;5.75;1.33;;;;;;;0.72;100.00;99282.22;6320069;28;20040;-78
2023/02/04 06:24:08;;;;;;;1.05;1.00;;;;;;;0.73;100.00;99280.50;6305270;28;20097;-71
2023/02/04 06:27:09;;;;;;;1.80;1.42;;;;;;;0.76;100.00;99281.22;6323591;28;20496;-71
2023/02/04 06:30:10;;;;;;;4.32;1.63;;;;;;;0.83;100.00;99288.72;6325201;28;20048;-71
2023/02/04 06:33:11;;;;;;;2.97;1.52;;;;;;;0.98;100.00;99283.06;6307083;28;20382;-72
2023/02/04 06:36:12;;;;;;;5.22;1.92;;;;;;;1.03;100.00;99291.47;6306943;28;20044;-79
2023/02/04 06:39:13;;;;;;;2.45;0.88;;;;;;;1.10;100.00;99297.22;6305582;28;20094;-79
2023/02/04 06:42:14;;;;;;;1.85;1.05;;;;;;;1.10;100.00;99295.50;6324400;28;20044;-72
2023/02/04 06:45:15;;;;;;;1.40;1.10;;;;;;;1.16;100.00;99292.72;6306428;28;20521;-71
2023/02/04 06:48:15;;;;;;;3.83;2.10;;;;;;;1.23;100.00;99288.19;6306624;28;20040;-79
2023/02/04 06:51:16;;;;;;;9.80;2.28;;;;;;;1.23;100.00;99295.91;6306575;28;20043;-72
2023/02/04 06:54:17;;;;;;;1.63;1.35;;;;;;;1.23;100.00;99295.91;6306487;28;20052;-72
2023/02/04 06:57:18;;;;;;;3.97;1.70;;;;;;;1.28;100.00;99294.03;6324607;28;20047;-72
2023/02/04 07:00:19;;;;;;;6.22;1.55;;;;;;;1.29;100.00;99298.25;6324380;28;20677;-72
2023/02/04 07:03:20;;;;;;;0.88;0.88;;;;;;;1.32;100.00;99295.59;6329791;28;20031;-72
2023/02/04 07:06:21;;;;;;;4.20;1.27;;;;;;;1.32;100.00;99295.59;6331183;28;20039;-72
2023/02/04 07:09:21;;;;;;;1.10;0.90;;;;;;;1.37;100.00;99306.53;6349382;28;20534;-72
2023/02/04 07:12:22;;;;;;;2.10;1.90;;;;;;;1.43;100.00;99300.34;6349250;28;20098;-72
2023/02/04 07:15:24;;;;;;;2.20;1.42;;;;;;;1.54;100.00;99305.09;6331059;28;20510;-72
2023/02/04 07:18:24;;;;;;;1.88;1.63;;;;;;;1.53;100.00;99304.28;6331174;28;20039;-71
2023/02/04 07:21:26;;;;;;;3.78;2.28;;;;;;;1.62;100.00;99308.25;6331097;28;20055;-78
2023/02/04 07:24:27;;;;;;;6.13;2.40;;;;;;;1.72;100.00;99307.00;6330347;28;20040;-79
2023/02/04 07:27:27;;;;;;;3.33;2.50;;;;;;;1.92;100.00;99320.88;6330555;28;20050;-79
2023/02/04 07:30:28;;;;;;;3.55;2.78;;;;;;;1.95;100.00;99324.16;6348709;28;20048;-72
2023/02/04 07:33:29;;;;;;;2.55;1.60;;;;;;;2.04;100.00;99329.84;6348230;28;20123;-79
2023/02/04 07:36:30;;;;;;;6.68;3.20;;;;;;;2.09;100.00;99333.13;6330489;28;20035;-72
2023/02/04 07:39:30;;;;;;;14.77;4.95;;;;;;;2.19;100.00;99334.44;6344302;28;20048;-78
2023/02/04 07:42:31;;;;;;;6.80;3.97;;;;;;;2.37;100.00;99343.22;6322762;28;20047;-79
2023/02/04 07:45:32;;;;;;;5.07;3.67;;;;;;;2.36;100.00;99344.09;6322905;28;20040;-72
2023/02/04 07:48:35;;;;;;;5.97;3.55;;;;;;;2.48;100.00;99348.75;6305080;28;20416;-78
2023/02/04 07:51:36;;;;;;;7.07;5.05;;;;;;;2.40;100.00;99355.94;6322638;28;20438;-78
2023/02/04 07:54:37;;;;;;;10.63;4.68;;;;;;;2.43;100.00;99366.13;6322575;28;20098;-78
2023/02/04 07:57:38;;;;;;;8.30;4.88;;;;;;;2.40;100.00;99367.06;6348378;28;20074;-78
2023/02/04 08:00:38;;;;;;;13.80;5.50;;;;;;;2.46;100.00;99373.72;6324169;28;20054;-73
2023/02/04 08:03:41;;;;;;;7.03;4.32;;;;;;;2.37;100.00;99374.09;6321902;28;20043;-73
2023/02/04 08:06:42;;;;;;;10.45;4.65;;;;;;;2.44;100.00;99388.41;6341617;28;20036;-73
2023/02/04 08:09:46;;;;;;;7.63;5.43;;;;;;;2.48;100.00;99395.13;6325002;28;20044;-73
2023/02/04 08:12:46;;;;;;;8.43;6.18;;;;;;;2.38;100.00;99392.03;6331093;28;20052;-73
2023/02/04 08:15:47;;;;;;;6.47;5.03;;;;;;;2.39;100.00;99403.19;6304692;28;20439;-74
2023/02/04 08:18:48;;;;;;;7.88;5.30;;;;;;;2.39;100.00;99405.78;6315479;28;20067;-78
2023/02/04 08:21:49;;;;;;;10.27;4.13;;;;;;;2.58;100.00;99409.31;6339720;28;20554;-78
2023/02/04 08:24:50;;;;;;;15.30;6.03;;;;;;;2.66;100.00;99413.31;6304551;28;20503;-78
2023/02/04 08:27:50;;;;;;;9.88;5.22;;;;;;;2.72;100.00;99428.53;6335522;28;20385;-74
2023/02/04 08:30:52;;;;;;;5.50;3.35;;;;;;;2.52;100.00;99430.16;6308357;28;20381;-74
2023/02/04 08:33:53;;;;;;;5.23;3.47;;;;;;;2.25;100.00;99442.31;6317871;28;20044;-74
2023/02/04 08:36:56;;;;;;;5.10;3.47;;;;;;;2.41;100.00;99416.88;6329243;28;20043;-74
2023/02/04 08:39:57;;;;;;;6.28;2.97;;;;;;;2.31;100.00;99423.25;6327254;28;20085;-75
2023/02/04 08:42:58;;;;;;;3.28;2.38;;;;;;;2.74;100.00;99419.88;6347309;28;20465;-74
2023/02/04 08:45:58;;;;;;;2.10;1.77;;;;;;;2.69;100.00;99431.25;6337359;28;20044;-80
2023/02/04 08:49:01;;;;;;;2.47;1.25;;;;;;;3.32;100.00;99434.75;6304206;28;20039;-80
2023/02/04 08:52:04;;;;;;;2.55;1.70;;;;;;;3.50;100.00;99451.22;6343965;28;20043;-79
2023/02/04 08:55:06;;;;;;;3.30;2.17;;;;;;;3.49;100.00;99466.75;6326556;28;20052;-75
2023/02/04 08:58:06;;;;;;;4.78;2.75;;;;;;;3.63;100.00;99475.56;6328880;28;20047;-75
2023/02/04 09:01:12;;;;;;;2.85;1.65;;;;;;;3.43;100.00;99478.13;6347430;28;20073;-81
2023/02/04 09:04:14;;;;;;;6.00;2.85;;;;;;;3.13;100.00;99487.94;6328354;28;20142;-81
2023/02/04 09:07:15;;;;;;;5.93;2.60;;;;;;;3.25;100.00;99497.75;6348158;28;20050;-81
2023/02/04 09:10:16;;;;;;;5.03;2.88;;;;;;;2.92;100.00;99489.63;6348208;28;20118;-81
2023/02/04 09:13:16;;;;;;;4.55;2.85;;;;;;;2.62;100.00;99507.94;6347999;28;20040;-81
2023/02/04 09:16:17;;;;;;;10.73;3.55;;;;;;;2.65;100.00;99530.16;6348112;28;20043;-81
2023/02/04 09:19:24;;;;;;;4.53;3.17;;;;;;;2.40;100.00;99549.91;6345468;28;20100;-75
2023/02/04 09:22:24;;;;;;;4.63;2.88;;;;;;;1.86;100.00;99544.94;6309360;28;20072;-80
2023/02/04 09:25:30;;;;;;;4.40;2.08;;;;;;;2.06;100.00;99557.97;6322692;28;20502;-80
2023/02/04 09:28:31;;;;;;;2.45;2.00;;;;;;;2.04;100.00;99564.03;6321978;28;20074;-80
2023/02/04 09:31:35;;;;;;;3.75;2.63;;;;;;;1.79;100.00;99573.44;6322159;28;20102;-80
2023/02/04 09:34:35;;;;;;;8.98;1.75;;;;;;;2.06;100.00;99581.13;6323040;28;20047;-80
2023/02/04 09:37:36;;;;;;;1.95;1.33;;;;;;;1.95;100.00;99578.88;6322866;28;20412;-74
2023/02/04 09:40:46;;;;;;;2.83;1.73;;;;;;;2.06;100.00;99591.44;6313649;28;20127;-80
2023/02/04 09:43:47;;;;;;;3.53;2.30;;;;;;;2.04;100.00;99587.19;6314764;28;20032;-74
2023/02/04 09:46:51;;;;;;;5.57;1.25;;;;;;;2.01;100.00;99606.16;6302748;28;20124;-74
2023/02/04 09:49:52;;;;;;;1.95;1.60;;;;;;;2.01;100.00;99593.28;6325427;28;20081;-82
2023/02/04 09:52:59;;;;;;;1.77;1.00;;;;;;;2.06;100.00;99613.72;6328956;28;20448;-81
2023/02/04 09:56:00;;;;;;;1.60;1.50;;;;;;;1.89;100.00;99617.69;6322618;28;20052;-74
2023/02/04 09:59:17;;;;;;;5.28;2.33;;;;;;;1.70;100.00;99609.72;6309271;28;20047;-82
2023/02/04 10:02:23;;;;;;;2.58;1.52;;;;;;;1.86;100.00;99617.81;6327617;28;20119;-81
2023/02/04 10:05:29;;;;;;;1.15;0.82;;;;;;;2.03;100.00;99631.84;6317419;28;20106;-83
2023/02/04 10:08:33;;;;;;;1.42;0.95;;;;;;;2.27;100.00;99643.09;6330817;28;20054;-82
2023/02/04 10:11:36;;;;;;;1.85;0.98;;;;;;;2.02;100.00;99636.16;6327253;28;20036;-83
2023/02/04 10:14:39;;;;;;;0.85;0.68;;;;;;;2.14;99.70;99635.78;6331398;28;20039;-82
2023/02/04 10:17:41;;;;;;;0.57;0.55;;;;;;;2.05;95.58;99615.47;6341110;28;20036;-75
2023/02/04 10:20:44;;;;;;;0.70;0.70;;;;;;;2.18;93.17;99639.91;6320176;28;20035;-85
2023/02/04 10:23:48;;;;;;;0.90;0.90;;;;;;;1.77;93.10;99646.38;6328985;28;20594;-74
2023/02/04 10:26:49;;;;;;;0.70;0.70;;;;;;;1.94;88.65;99653.59;6319455;28;20123;-74
2023/02/04 10:29:57;;;;;;;0.73;0.65;;;;;;;2.11;88.02;99678.78;6335271;28;20050;-74
2023/02/04 10:32:59;;;;;;;1.08;0.75;;;;;;;1.79;88.68;99660.03;6321902;28;20487;-83
2023/02/04 10:35:59;;;;;;;1.02;0.88;;;;;;;2.49;89.82;99674.94;6336021;28;20160;-83
2023/02/04 10:39:25;;;;;;;1.83;1.38;;;;;;;2.65;87.64;99692.44;6327239;28;20319;-83
2023/02/04 10:42:28;;;;;;;0.93;0.85;;;;;;;2.58;84.95;99696.97;6312206;28;20056;-74
2023/02/04 10:45:29;;;;;;;2.05;1.23;;;;;;;2.12;85.80;99698.47;6335581;28;20044;-82
2023/02/04 10:48:40;;;;;;;0.50;0.50;;;;;;;2.19;85.59;99702.53;6339124;27;20479;-83
2023/02/04 10:51:41;;;;;;;0.60;0.60;;;;;;;2.01;86.43;99684.19;6338838;28;20077;-83
2023/02/04 10:54:42;;;;;;;0.88;0.60;;;;;;;1.69;89.21;99710.06;6340511;28;20040;-84
2023/02/04 10:57:48;;;;;;;0.50;0.50;;;;;;;1.89;89.23;99712.88;6320149;28;20089;-85
2023/02/04 11:00:49;;;;;;;1.90;1.10;;;;;;;1.87;90.74;99721.53;6313703;28;20052;-75
2023/02/04 11:03:52;;;;;;;0.90;0.75;;;;;;;1.47;88.41;99727.88;6330881;27;20054;-84
2023/02/04 11:06:54;;;;;;;0.38;0.32;;;;;;;1.68;87.88;99741.84;6319520;28;20051;-85
2023/02/04 11:09:56;;;;;;;1.02;0.63;;;;;;;1.62;89.39;99745.44;6330194;27;20693;-83
2023/02/04 11:12:57;;;;;;;0.40;0.40;;;;;;;1.69;88.87;99759.81;6225691;28;20053;-74
2023/02/04 11:16:24;;;;;;;0.98;0.85;;;;;;;1.32;88.84;99762.56;6273171;28;21584;-83
2023/02/04 11:19:38;;;;;;;0.50;0.40;;;;;;;1.52;90.73;99770.56;6299886;28;20067;-74
2023/02/04 11:22:45;;;;;;;1.13;0.65;;;;;;;1.45;88.72;99778.50;6265188;28;20073;-74
2023/02/04 11:25:47;;;;;;;1.48;1.30;;;;;;;1.33;88.67;99790.81;6276998;28;20033;-74
2023/02/04 11:28:56;;;;;;;0.80;0.63;;;;;;;1.42;88.02;99818.00;6310392;28;20451;-74
2023/02/04 11:32:03;;;;;;;0.90;0.90;;;;;;;1.27;89.98;99801.25;6311101;28;20496;-84
2023/02/04 11:35:09;;;;;;;3.88;2.83;;;;;;;1.42;88.33;99828.28;6290358;28;20037;-73
2023/02/04 11:38:26;;;;;;;1.35;0.95;;;;;;;1.12;84.92;99815.38;6308313;28;20063;-73
2023/02/04 11:41:29;;;;;;;0.30;0.30;;;;;;;1.02;87.79;99851.63;6288206;28;20511;-73
2023/02/04 11:44:32;;;;;;;0.80;0.50;;;;;;;1.05;88.09;99851.53;6275868;28;20488;-84
2023/02/04 11:47:35;;;;;;;0.63;0.50;;;;;;;1.07;89.00;99866.03;6292419;28;20045;-84
2023/02/04 11:50:37;;;;;;;1.45;1.05;;;;;;;0.82;87.52;99865.78;6279289;28;20499;-83
2023/02/04 11:53:38;;;;;;;0.50;0.50;;;;;;;0.74;85.90;99883.97;6280730;28;20060;-82
2023/02/04 11:56:39;;;;;;;2.47;1.23;;;;;;;0.88;84.99;99890.47;6277512;28;20534;-81
2023/02/04 11:59:40;;;;;;;0.88;0.75;;;;;;;0.84;86.18;99884.56;6280356;28;20041;-81
2023/02/04 12:02:46;;;;;;;0.70;0.60;;;;;;;1.07;86.39;99909.72;6295307;28;20036;-81
2023/02/04 12:05:48;;;;;;;0.43;0.43;;;;;;;0.98;84.00;99915.06;6274933;28;20056;-81
2023/02/04 12:08:49;;;;;;;0.63;0.63;;;;;;;0.98;84.07;99907.38;6285862;28;20054;-81
2023/02/04 12:11:57;;;;;;;0.63;0.50;;;;;;;0.99;84.41;99930.47;6275236;28;20048;-81
2023/02/04 12:15:12;;;;;;;1.80;0.65;;;;;;;0.89;82.88;99943.56;6279471;28;20484;-72
2023/02/04 12:18:15;;;;;;;1.73;0.98;;;;;;;0.96;82.53;99935.66;6297320;28;20091;-80
2023/02/04 12:21:20;;;;;;;0.60;0.52;;;;;;;1.00;83.07;99951.84;6296069;28;20037;-81
2023/02/04 12:24:21;;;;;;;1.00;0.90;;;;;;;0.99;81.38;99952.75;6295211;28;20550;-81
2023/02/04 12:27:21;;;;;;;0.40;0.40;;;;;;;0.80;81.66;99945.47;6278945;28;20059;-81
2023/02/04 12:30:24;;;;;;;0.65;0.65;;;;;;;0.47;80.70;99982.97;6279354;28;20253;-80
2023/02/04 12:33:25;;;;;;;0.40;0.40;;;;;;;0.59;81.87;99992.97;6279250;28;20091;-80
2023/02/04 12:36:28;;;;;;;0.20;0.20;;;;;;;0.76;81.51;99991.78;6296949;28;20435;-80
2023/02/04 12:39:30;;;;;;;4.15;1.67;;;;;;;0.58;81.99;100013.59;6267532;28;20401;-80
2023/02/04 12:42:33;;;;;;;0.30;0.30;;;;;;;0.71;79.83;100027.00;6271891;28;20037;-74
2023/02/04 12:45:34;;;;;;;1.05;0.68;;;;;;;0.77;79.33;100026.88;6291735;28;20044;-72
2023/02/04 12:48:39;;;;;;;0.47;0.47;;;;;;;0.85;78.58;100022.41;6296329;28;20408;-71
2023/02/04 12:51:40;;;;;;;1.83;0.93;;;;;;;0.66;75.33;100033.94;6275039;28;20048;-72
2023/02/04 12:54:42;;;;;;;1.67;0.68;;;;;;;0.88;76.69;100040.31;6283048;28;20041;-71
2023/02/04 12:57:43;;;;;;;0.30;0.30;;;;;;;1.12;75.05;100061.25;6270885;28;20480;-71
2023/02/04 13:00:44;;;;;;;5.60;1.60;;;;;;;1.37;74.85;100082.94;6291533;28;20079;-72
2023/02/04 13:03:47;;;;;;;0.77;0.60;;;;;;;1.15;72.80;100074.00;6277512;28;20041;-80
2023/02/04 13:06:48;;;;;;;0.98;0.70;;;;;;;1.22;73.39;100088.44;6321524;28;20098;-71
2023/02/04 13:09:49;;;;;;;0.38;0.38;;;;;;;1.24;73.53;100098.69;6274776;28;20082;-80
2023/02/04 13:12:50;;;;;;;1.10;1.00;;;;;;;1.04;73.36;100122.22;6296199;28;20040;-79
2023/02/04 13:15:51;;;;;;;0.50;0.47;;;;;;;1.37;74.74;100143.78;6295909;28;20040;-71
2023/02/04 13:18:52;;;;;;;1.08;0.98;;;;;;;1.04;73.82;100120.50;6295815;28;20068;-79
2023/02/04 13:21:52;;;;;;;1.35;0.85;;;;;;;0.76;73.34;100136.47;6296027;28;20037;-79
2023/02/04 13:24:55;;;;;;;3.40;1.20;;;;;;;0.98;73.78;100206.25;6295941;28;20045;-72
2023/02/04 13:27:56;;;;;;;0.88;0.57;;;;;;;0.63;73.73;100180.41;6277873;28;20052;-79
2023/02/04 13:30:59;;;;;;;0.70;0.50;;;;;;;0.27;74.40;100210.94;6291635;28;20040;-79
2023/02/04 13:34:00;;;;;;;1.85;0.90;;;;;;;0.06;74.91;100228.38;6276940;28;20047;-71
2023/02/04 13:37:01;;;;;;;2.05;0.70;;;;;;;0.10;76.40;100221.47;6268286;28;20238;-78
2023/02/04 13:40:01;;;;;;;1.17;0.95;;;;;;;-0.02;75.18;100218.25;6279216;28;20048;-79
2023/02/04 13:43:03;;;;;;;0.80;0.80;;;;;;;0.06;75.60;100223.25;6275723;28;20420;-71
2023/02/04 13:46:05;;;;;;;1.27;0.65;;;;;;;0.03;76.74;100240.41;6277141;28;20036;-79
2023/02/04 13:49:05;;;;;;;0.93;0.65;;;;;;;0.12;76.31;100248.81;6294656;28;20040;-71
2023/02/04 13:52:06;;;;;;;1.55;0.80;;;;;;;0.37;74.33;100254.44;6277085;28;20043;-71
2023/02/04 13:55:08;;;;;;;1.95;0.57;;;;;;;0.40;73.00;100272.34;6259560;28;20045;-71
2023/02/04 15:01:32;;;;;;;0.20;0.20;;;;;;;-0.27;68.21;100461.38;6342803;27;1565499;-77
2023/02/04 15:04:34;;;;;;;0.47;0.30;;;;;;;-0.37;68.35;100458.91;6375246;27;20058;-77
2023/02/04 15:07:35;;;;;;;2.15;0.80;;;;;;;-0.37;68.20;100470.03;6375759;27;20042;-77
2023/02/04 15:10:37;;;;;;;0.63;0.60;;;;;;;-0.57;69.85;100487.31;6380787;27;20401;-70
2023/02/04 15:13:40;;;;;;;0.47;0.40;;;;;;;-0.60;68.62;100488.16;6376345;27;20039;-77
2023/02/04 15:16:43;;;;;;;0.15;0.15;;;;;;;-0.58;69.15;100499.25;6376523;27;20061;-77
2023/02/04 15:19:44;;;;;;;0.70;0.70;;;;;;;-0.65;71.10;100501.00;6358484;27;20495;-77
2023/02/04 15:22:50;;;;;;;0.30;0.30;;;;;;;-0.67;70.59;100507.88;6376530;27;20578;-77